createdAt,value
2022-12-16T00:00:53.411Z,3.03
2022-12-16T00:03:21.854Z,2.80
2022-12-16T00:06:14.224Z,2.10
2022-12-16T00:12:09.945Z,2.80
2022-12-16T00:14:37.359Z,2.00
2022-12-16T00:17:05.960Z,2.30
2022-12-16T00:19:33.246Z,2.40
2022-12-16T00:22:00.453Z,2.60
2022-12-16T00:27:10.256Z,3.83
2022-12-16T00:29:37.608Z,2.33
2022-12-16T00:32:06.425Z,2.50
2022-12-16T00:34:33.917Z,2.33
2022-12-16T00:37:01.163Z,2.30
2022-12-16T00:39:40.202Z,2.33
2022-12-16T00:42:09.149Z,2.10
2022-12-16T00:44:42.071Z,2.50
2022-12-16T00:47:10.653Z,2.23
2022-12-16T00:49:37.958Z,2.70
2022-12-16T00:52:05.507Z,2.40
2022-12-16T00:54:32.790Z,2.43
2022-12-16T00:57:00.029Z,2.63
2022-12-16T00:59:27.606Z,2.33
2022-12-16T01:01:55.371Z,2.20
2022-12-16T01:04:24.068Z,2.53
2022-12-16T01:06:51.319Z,2.57
2022-12-16T01:09:37.853Z,3.03
2022-12-16T01:15:39.741Z,3.00
2022-12-16T01:18:07.075Z,3.20
2022-12-16T01:20:35.995Z,2.67
2022-12-16T01:23:03.304Z,2.90
2022-12-16T01:25:30.591Z,2.60
2022-12-16T01:27:57.880Z,2.30
2022-12-16T01:30:25.127Z,2.50
2022-12-16T01:32:52.543Z,2.77
2022-12-16T01:35:51.508Z,2.50
2022-12-16T01:38:08.503Z,2.30
2022-12-16T01:40:35.957Z,2.97
2022-12-16T01:43:06.858Z,2.63
2022-12-16T01:45:39.645Z,2.60
2022-12-16T01:48:09.350Z,2.10
2022-12-16T01:50:37.532Z,3.33
2022-12-16T01:53:05.519Z,3.00
2022-12-16T01:55:35.852Z,2.50
2022-12-16T01:58:05.058Z,2.63
2022-12-16T02:00:32.460Z,2.50
2022-12-16T02:02:59.997Z,2.53
2022-12-16T02:05:27.371Z,2.33
2022-12-16T02:07:57.149Z,1.83
2022-12-16T02:10:52.558Z,2.73
2022-12-16T02:13:43.244Z,2.90
2022-12-16T02:16:17.216Z,2.67
2022-12-16T02:18:49.395Z,2.40
2022-12-16T02:21:32.646Z,2.83
2022-12-16T02:24:16.723Z,2.70
2022-12-16T02:26:57.951Z,2.50
2022-12-16T02:29:38.084Z,2.80
2022-12-16T02:32:10.341Z,2.20
2022-12-16T02:34:42.943Z,3.13
2022-12-16T02:37:15.213Z,2.43
2022-12-16T02:39:46.502Z,3.00
2022-12-16T02:42:15.570Z,2.50
2022-12-16T02:44:45.570Z,2.60
2022-12-16T02:47:17.753Z,2.80
2022-12-16T02:49:46.994Z,2.30
2022-12-16T02:52:15.010Z,2.70
2022-12-16T02:54:42.505Z,2.10
2022-12-16T02:57:14.126Z,2.40
2022-12-16T02:59:44.713Z,2.30
2022-12-16T03:02:16.915Z,2.53
2022-12-16T03:04:47.857Z,2.27
2022-12-16T03:07:16.278Z,3.17
2022-12-16T03:09:44.535Z,2.73
2022-12-16T03:12:15.758Z,2.57
2022-12-16T03:14:44.749Z,2.67
2022-12-16T03:17:16.600Z,2.20
2022-12-16T03:19:53.170Z,2.37
2022-12-16T03:22:21.779Z,2.33
2022-12-16T03:24:49.214Z,3.00
2022-12-16T03:27:19.179Z,2.20
2022-12-16T03:29:51.262Z,3.00
2022-12-16T03:35:20.978Z,2.53
2022-12-16T03:37:50.064Z,2.03
2022-12-16T03:40:17.576Z,2.47
2022-12-16T03:42:45.177Z,2.80
2022-12-16T03:45:14.791Z,2.43
2022-12-16T03:47:53.022Z,2.40
2022-12-16T03:50:26.547Z,2.20
2022-12-16T03:52:54.250Z,2.30
2022-12-16T03:55:21.628Z,2.20
2022-12-16T03:57:48.888Z,2.50
2022-12-16T04:00:16.728Z,2.67
2022-12-16T04:02:44.404Z,2.40
2022-12-16T04:05:13.661Z,2.70
2022-12-16T04:10:23.108Z,2.70
2022-12-16T04:12:50.408Z,2.90
2022-12-16T04:15:17.732Z,2.77
2022-12-16T04:17:45.165Z,2.53
2022-12-16T04:20:16.247Z,2.60
2022-12-16T04:22:48.654Z,3.07
2022-12-16T04:29:03.347Z,3.20
2022-12-16T04:31:30.667Z,2.50
2022-12-16T04:33:57.948Z,2.23
2022-12-16T04:36:26.541Z,2.33
2022-12-16T04:38:58.900Z,2.53
2022-12-16T04:41:26.206Z,2.93
2022-12-16T04:43:53.892Z,2.50
2022-12-16T04:46:21.269Z,2.60
2022-12-16T04:48:48.563Z,2.60
2022-12-16T04:51:15.774Z,2.80
2022-12-16T04:53:44.482Z,2.30
2022-12-16T04:56:12.023Z,2.30
2022-12-16T04:58:39.245Z,2.60
2022-12-16T05:01:06.558Z,2.80
2022-12-16T05:03:58.110Z,2.80
2022-12-16T05:09:23.093Z,2.80
2022-12-16T05:11:50.468Z,2.43
2022-12-16T05:14:17.920Z,3.33
2022-12-16T05:16:45.104Z,3.23
2022-12-16T05:19:12.612Z,2.77
2022-12-16T05:24:23.902Z,2.60
2022-12-16T05:26:51.155Z,2.60
2022-12-16T05:29:18.609Z,2.53
2022-12-16T05:31:45.815Z,2.73
2022-12-16T05:37:49.896Z,2.57
2022-12-16T05:40:18.499Z,2.67
2022-12-16T05:42:45.914Z,3.03
2022-12-16T05:45:13.211Z,2.90
2022-12-16T05:47:40.472Z,2.53
2022-12-16T05:50:07.809Z,3.20
2022-12-16T05:52:41.196Z,3.53
2022-12-16T05:55:09.084Z,2.90
2022-12-16T05:57:37.720Z,2.60
2022-12-16T06:00:05.386Z,2.90
2022-12-16T06:03:04.206Z,3.00
2022-12-16T06:05:44.038Z,2.60
2022-12-16T06:08:32.077Z,3.07
2022-12-16T06:10:59.398Z,3.07
2022-12-16T06:13:28.241Z,3.13
2022-12-16T06:15:55.578Z,3.20
2022-12-16T06:18:22.880Z,3.30
2022-12-16T06:20:54.523Z,3.00
2022-12-16T06:23:25.506Z,3.33
2022-12-16T06:25:53.065Z,3.40
2022-12-16T06:28:20.320Z,3.53
2022-12-16T06:30:49.108Z,3.50
2022-12-16T06:33:16.375Z,3.60
2022-12-16T06:35:43.719Z,3.20
2022-12-16T06:38:12.598Z,3.20
2022-12-16T06:40:39.789Z,3.10
2022-12-16T06:43:07.106Z,3.13
2022-12-16T06:45:35.071Z,4.20
2022-12-16T06:48:03.979Z,2.97
2022-12-16T06:50:31.310Z,3.40
2022-12-16T06:52:58.546Z,3.03
2022-12-16T06:55:25.831Z,2.20
2022-12-16T06:57:57.232Z,3.80
2022-12-16T07:00:24.420Z,4.83
2022-12-16T07:02:51.718Z,3.30
2022-12-16T07:05:20.429Z,3.57
2022-12-16T07:07:48.291Z,3.80
2022-12-16T07:10:15.555Z,3.60
2022-12-16T07:12:42.794Z,3.67
2022-12-16T07:15:10.497Z,3.63
2022-12-16T07:17:37.746Z,4.03
2022-12-16T07:20:05.427Z,3.63
2022-12-16T07:22:34.007Z,3.90
2022-12-16T07:25:01.194Z,3.53
2022-12-16T07:27:28.484Z,3.67
2022-12-16T07:29:56.130Z,4.10
2022-12-16T07:32:23.419Z,3.50
2022-12-16T07:34:50.711Z,4.10
2022-12-16T07:37:18.168Z,3.87
2022-12-16T07:39:50.065Z,3.90
2022-12-16T07:42:21.715Z,3.70
2022-12-16T07:44:50.838Z,3.33
2022-12-16T07:47:18.257Z,3.50
2022-12-16T07:49:45.588Z,3.40
2022-12-16T07:52:12.847Z,3.60
2022-12-16T07:54:40.093Z,3.60
2022-12-16T07:57:08.672Z,3.63
2022-12-16T07:59:35.924Z,3.63
2022-12-16T08:02:03.292Z,3.53
2022-12-16T08:04:30.681Z,3.80
2022-12-16T08:06:57.899Z,3.40
2022-12-16T08:09:25.277Z,4.20
2022-12-16T08:11:52.562Z,3.53
2022-12-16T08:14:21.337Z,4.10
2022-12-16T08:17:07.071Z,3.50
2022-12-16T08:19:39.870Z,4.30
2022-12-16T08:22:12.128Z,3.57
2022-12-16T08:24:39.365Z,3.90
2022-12-16T08:27:06.580Z,3.60
2022-12-16T08:29:44.311Z,4.00
2022-12-16T08:32:13.349Z,4.27
2022-12-16T08:34:40.654Z,3.27
2022-12-16T08:37:07.919Z,3.67
2022-12-16T08:39:35.894Z,3.80
2022-12-16T08:42:03.366Z,3.83
2022-12-16T08:44:30.603Z,3.87
2022-12-16T08:46:59.286Z,2.87
2022-12-16T08:49:26.652Z,3.57
2022-12-16T08:52:06.363Z,3.70
2022-12-16T08:55:04.915Z,3.37
2022-12-16T08:57:38.092Z,3.83
2022-12-16T09:00:20.859Z,4.27
2022-12-16T09:02:53.045Z,4.10
2022-12-16T09:05:22.886Z,3.40
2022-12-16T09:07:50.204Z,3.77
2022-12-16T09:10:18.277Z,3.10
2022-12-16T09:12:45.577Z,3.37
2022-12-16T09:15:12.804Z,3.13
2022-12-16T09:17:40.028Z,3.30
2022-12-16T09:20:09.518Z,3.63
2022-12-16T09:22:38.153Z,3.43
2022-12-16T09:25:05.743Z,3.60
2022-12-16T09:27:33.070Z,3.13
2022-12-16T09:30:00.285Z,3.57
2022-12-16T09:32:46.267Z,3.07
2022-12-16T09:35:27.581Z,3.10
2022-12-16T09:37:55.384Z,3.40
2022-12-16T09:40:22.831Z,3.57
2022-12-16T09:42:59.568Z,3.67
2022-12-16T09:45:34.344Z,3.63
2022-12-16T09:48:05.895Z,3.33
2022-12-16T09:53:24.232Z,3.70
2022-12-16T09:55:52.378Z,3.20
2022-12-16T09:58:21.407Z,3.27
2022-12-16T10:00:54.389Z,3.83
2022-12-16T10:03:38.017Z,3.67
2022-12-16T10:06:11.481Z,4.37
2022-12-16T10:08:42.240Z,3.57
2022-12-16T10:11:10.798Z,3.63
2022-12-16T10:13:40.773Z,4.17
2022-12-16T10:16:11.960Z,3.97
2022-12-16T10:18:44.594Z,3.37
2022-12-16T10:24:02.521Z,3.00
2022-12-16T10:26:56.034Z,3.40
2022-12-16T10:29:52.045Z,3.40
2022-12-16T10:32:20.565Z,3.57
2022-12-16T10:34:47.852Z,2.90
2022-12-16T10:41:10.313Z,2.60
2022-12-16T10:43:45.830Z,2.80
2022-12-16T10:46:16.249Z,3.33
2022-12-16T10:48:51.174Z,3.17
2022-12-16T10:51:31.036Z,3.53
2022-12-16T10:54:21.038Z,2.80
2022-12-16T10:56:54.252Z,2.43
2022-12-16T10:59:21.785Z,3.03
2022-12-16T11:01:57.156Z,2.60
2022-12-16T11:04:31.840Z,3.70
2022-12-16T11:06:59.081Z,3.53
2022-12-16T11:09:28.447Z,2.83
2022-12-16T11:12:28.450Z,3.10
2022-12-16T11:15:29.933Z,3.10
2022-12-16T11:18:05.411Z,2.73
2022-12-16T11:20:32.694Z,2.30
2022-12-16T11:23:23.662Z,3.23
2022-12-16T11:26:03.693Z,2.80
2022-12-16T11:28:30.935Z,2.40
2022-12-16T11:30:59.736Z,2.93
2022-12-16T11:33:35.732Z,2.00
2022-12-16T11:36:08.071Z,2.33
2022-12-16T11:38:39.556Z,2.87
2022-12-16T11:41:20.292Z,3.20
2022-12-16T11:43:50.496Z,3.13
2022-12-16T11:46:43.784Z,2.50
2022-12-16T11:49:24.954Z,3.10
2022-12-16T11:52:14.103Z,2.60
2022-12-16T11:54:50.801Z,2.63
2022-12-16T11:57:20.262Z,2.77
2022-12-16T11:59:51.674Z,2.60
2022-12-16T12:02:25.308Z,1.70
2022-12-16T12:07:39.645Z,2.77
2022-12-16T12:10:15.897Z,2.47
2022-12-16T12:12:46.298Z,2.10
2022-12-16T12:15:18.146Z,2.43
2022-12-16T12:17:48.829Z,2.20
2022-12-16T12:20:34.714Z,2.30
2022-12-16T12:23:24.473Z,1.97
2022-12-16T12:25:55.411Z,2.37
2022-12-16T12:28:28.068Z,2.60
2022-12-16T12:30:57.968Z,2.00
2022-12-16T12:33:31.911Z,2.03
2022-12-16T12:36:07.370Z,2.27
2022-12-16T12:38:39.688Z,1.63
2022-12-16T12:41:11.296Z,2.40
2022-12-16T12:43:45.150Z,2.30
2022-12-16T12:46:15.856Z,2.00
2022-12-16T12:48:46.912Z,2.60
2022-12-16T12:51:17.837Z,2.10
2022-12-16T12:53:50.482Z,2.03
2022-12-16T12:56:21.779Z,2.07
2022-12-16T12:58:50.151Z,2.40
2022-12-16T13:01:40.384Z,2.43
2022-12-16T13:04:34.985Z,2.40
2022-12-16T13:07:02.547Z,2.00
2022-12-16T13:09:32.994Z,2.50
2022-12-16T13:15:21.952Z,2.30
2022-12-16T13:18:16.449Z,2.30
2022-12-16T13:20:43.823Z,2.03
2022-12-16T13:23:24.353Z,2.10
2022-12-16T13:25:53.147Z,2.53
2022-12-16T13:28:25.246Z,2.63
2022-12-16T13:31:08.955Z,1.80
2022-12-16T13:34:00.242Z,2.50
2022-12-16T13:36:33.906Z,2.27
2022-12-16T13:39:06.367Z,2.30
2022-12-16T13:41:48.499Z,2.23
2022-12-16T13:44:43.517Z,2.10
2022-12-16T13:47:31.755Z,2.17
2022-12-16T13:50:17.946Z,2.10
2022-12-16T13:52:48.230Z,1.73
2022-12-16T13:55:25.141Z,2.30
2022-12-16T13:57:54.192Z,2.40
2022-12-16T14:04:04.078Z,2.70
2022-12-16T14:06:32.397Z,2.33
2022-12-16T14:08:59.795Z,2.80
2022-12-16T14:11:29.565Z,2.80
2022-12-16T14:13:59.621Z,1.77
2022-12-16T14:16:33.776Z,2.63
2022-12-16T14:21:40.325Z,2.30
2022-12-16T14:24:10.770Z,2.50
2022-12-16T14:26:38.479Z,2.97
2022-12-16T14:32:56.867Z,2.53
2022-12-16T14:35:25.523Z,2.33
2022-12-16T14:37:54.316Z,2.47
2022-12-16T14:40:22.448Z,2.70
2022-12-16T14:42:52.095Z,3.20
2022-12-16T14:45:23.296Z,2.50
2022-12-16T14:47:50.577Z,3.23
2022-12-16T14:50:22.037Z,3.03
2022-12-16T14:52:49.395Z,2.80
2022-12-16T14:55:18.651Z,2.93
2022-12-16T14:57:45.866Z,2.50
2022-12-16T15:00:14.707Z,2.90
2022-12-16T15:02:45.042Z,2.80
2022-12-16T15:05:12.920Z,2.80
2022-12-16T15:07:43.133Z,2.90
2022-12-16T15:10:13.854Z,3.30
2022-12-16T15:12:43.728Z,3.80
2022-12-16T15:15:14.223Z,2.83
2022-12-16T15:17:45.100Z,2.93
2022-12-16T15:20:17.375Z,2.90
2022-12-16T15:22:46.130Z,2.73
2022-12-16T15:25:19.568Z,3.07
2022-12-16T15:27:55.477Z,3.50
2022-12-16T15:30:35.672Z,3.50
2022-12-16T15:33:06.873Z,3.03
2022-12-16T15:35:36.601Z,2.90
2022-12-16T15:38:10.983Z,3.47
2022-12-16T15:40:40.713Z,3.23
2022-12-16T15:43:20.517Z,3.00
2022-12-16T15:45:49.111Z,3.10
2022-12-16T15:48:19.314Z,3.43
2022-12-16T15:50:53.211Z,3.67
2022-12-16T15:53:28.730Z,3.33
2022-12-16T15:56:02.601Z,3.37
2022-12-16T15:58:34.499Z,3.40
2022-12-16T16:01:01.867Z,3.67
2022-12-16T16:03:30.477Z,3.27
2022-12-16T16:05:58.045Z,3.37
2022-12-16T16:08:25.654Z,3.63
2022-12-16T16:10:52.940Z,3.43
2022-12-16T16:13:20.219Z,4.73
2022-12-16T16:15:49.019Z,4.13
2022-12-16T16:18:16.362Z,4.37
2022-12-16T16:20:43.928Z,3.60
2022-12-16T16:23:11.355Z,4.47
2022-12-16T16:25:38.655Z,4.27
2022-12-16T16:28:05.874Z,4.33
2022-12-16T16:30:33.313Z,4.60
2022-12-16T16:33:02.034Z,4.20
2022-12-16T16:35:29.273Z,3.93
2022-12-16T16:37:56.560Z,4.97
2022-12-16T16:40:27.708Z,4.50
2022-12-16T16:42:55.023Z,3.97
2022-12-16T16:45:22.291Z,3.90
2022-12-16T16:47:49.596Z,4.17
2022-12-16T16:50:19.570Z,3.70
2022-12-16T16:52:46.970Z,4.43
2022-12-16T16:55:15.361Z,3.30
2022-12-16T16:57:42.795Z,3.87
2022-12-16T17:00:11.303Z,4.03
2022-12-16T17:02:41.127Z,4.07
2022-12-16T17:05:09.515Z,4.00
2022-12-16T17:07:38.210Z,3.90
2022-12-16T17:10:05.912Z,4.07
2022-12-16T17:12:33.173Z,4.20
2022-12-16T17:15:00.482Z,3.90
2022-12-16T17:17:27.721Z,3.93
2022-12-16T17:19:55.022Z,4.17
2022-12-16T17:22:22.302Z,4.63
2022-12-16T17:24:54.389Z,4.77
2022-12-16T17:27:24.241Z,5.27
2022-12-16T17:29:51.706Z,4.77
2022-12-16T17:32:18.966Z,4.07
2022-12-16T17:34:46.206Z,4.90
2022-12-16T17:37:13.530Z,5.80
2022-12-16T17:39:40.825Z,4.23
2022-12-16T17:42:11.828Z,4.90
2022-12-16T17:44:39.137Z,5.23
2022-12-16T17:47:06.489Z,4.90
2022-12-16T17:49:33.831Z,5.50
2022-12-16T17:52:01.103Z,5.33
2022-12-16T17:54:29.719Z,5.07
2022-12-16T17:56:57.073Z,6.00
2022-12-16T17:59:25.671Z,5.03
2022-12-16T18:01:53.031Z,5.97
2022-12-16T18:04:20.452Z,5.80
2022-12-16T18:06:47.744Z,5.53
2022-12-16T18:09:14.980Z,6.00
2022-12-16T18:11:42.247Z,5.77
2022-12-16T18:14:09.508Z,6.30
2022-12-16T18:16:38.214Z,5.77
2022-12-16T18:19:05.542Z,6.30
2022-12-16T18:21:32.848Z,5.97
2022-12-16T18:24:00.128Z,6.17
2022-12-16T18:26:27.398Z,6.87
2022-12-16T18:28:54.767Z,6.50
2022-12-16T18:31:22.062Z,6.13
2022-12-16T18:33:50.855Z,7.10
2022-12-16T18:36:18.103Z,6.73
2022-12-16T18:38:45.392Z,6.87
2022-12-16T18:41:17.732Z,9.00
2022-12-16T18:43:44.950Z,9.10
2022-12-16T18:46:12.248Z,9.00
2022-12-16T18:48:39.488Z,8.10
2022-12-16T18:51:08.624Z,7.43
2022-12-16T18:53:36.251Z,9.23
2022-12-16T18:56:05.834Z,9.43
2022-12-16T18:58:59.575Z,10.40
2022-12-16T19:01:22.554Z,9.17
2022-12-16T19:03:49.868Z,9.00
2022-12-16T19:06:18.478Z,9.23
2022-12-16T19:08:45.782Z,9.10
2022-12-16T19:11:12.977Z,9.37
2022-12-16T19:13:40.222Z,8.80
2022-12-16T19:16:07.595Z,8.43
2022-12-16T19:18:35.231Z,8.97
2022-12-16T19:21:02.742Z,10.20
2022-12-16T19:23:31.530Z,9.83
2022-12-16T19:25:59.254Z,9.60
2022-12-16T19:28:26.648Z,10.30
2022-12-16T19:30:57.316Z,9.57
2022-12-16T19:33:24.843Z,9.97
2022-12-16T19:35:53.750Z,10.33
2022-12-16T19:38:21.103Z,10.80
2022-12-16T19:43:41.073Z,10.20
2022-12-16T19:46:08.302Z,10.60
2022-12-16T19:48:36.599Z,10.60
2022-12-16T19:51:04.570Z,11.47
2022-12-16T19:53:31.875Z,10.70
2022-12-16T19:56:00.765Z,11.77
2022-12-16T19:58:28.037Z,11.60
2022-12-16T20:00:55.376Z,11.23
2022-12-16T20:03:24.074Z,11.43
2022-12-16T20:05:59.363Z,10.53
2022-12-16T20:08:26.661Z,11.27
2022-12-16T20:10:54.900Z,11.73
2022-12-16T20:13:30.109Z,14.90
2022-12-16T20:16:01.381Z,14.07
2022-12-16T20:18:28.626Z,15.90
2022-12-16T20:20:55.903Z,15.90
2022-12-16T20:23:23.300Z,13.50
2022-12-16T20:25:56.260Z,14.40
2022-12-16T20:28:25.260Z,13.17
2022-12-16T20:30:53.652Z,19.47
2022-12-16T20:33:23.694Z,15.60
2022-12-16T20:35:57.570Z,16.30
2022-12-16T20:38:24.938Z,17.70
2022-12-16T20:43:44.510Z,17.87
2022-12-16T20:46:11.743Z,17.93
2022-12-16T20:48:38.984Z,17.63
2022-12-16T20:51:07.011Z,14.67
2022-12-16T20:53:34.463Z,13.93
2022-12-16T20:56:01.826Z,16.63
2022-12-16T20:58:29.108Z,17.03
2022-12-16T21:00:57.786Z,17.03
2022-12-16T21:03:25.080Z,17.63
2022-12-16T21:05:52.381Z,19.73
2022-12-16T21:08:23.408Z,16.27
2022-12-16T21:10:51.628Z,18.20
2022-12-16T21:13:19.236Z,19.27
2022-12-16T21:15:46.548Z,19.33
2022-12-16T21:18:15.141Z,18.43
2022-12-16T21:20:42.332Z,18.67
2022-12-16T21:23:09.833Z,18.30
2022-12-16T21:25:37.026Z,18.33
2022-12-16T21:28:04.439Z,19.03
2022-12-16T21:30:31.651Z,18.53
2022-12-16T21:32:59.069Z,20.50
2022-12-16T21:35:27.894Z,20.00
2022-12-16T21:37:55.330Z,18.27
2022-12-16T21:40:23.794Z,20.77
2022-12-16T21:42:51.057Z,22.17
2022-12-16T21:45:18.992Z,19.70
2022-12-16T21:47:46.290Z,19.80
2022-12-16T21:50:13.558Z,18.70
2022-12-16T21:52:42.536Z,20.70
2022-12-16T21:55:09.904Z,19.87
2022-12-16T21:57:37.145Z,19.90
2022-12-16T22:00:05.018Z,19.93
2022-12-16T22:02:37.737Z,18.77
2022-12-16T22:05:05.092Z,19.93
2022-12-16T22:07:32.527Z,20.17
2022-12-16T22:10:01.111Z,19.03
2022-12-16T22:12:28.384Z,18.23
2022-12-16T22:14:56.034Z,20.20
2022-12-16T22:17:23.601Z,19.40
2022-12-16T22:19:50.837Z,18.63
2022-12-16T22:22:19.004Z,18.47
2022-12-16T22:24:46.263Z,19.03
2022-12-16T22:27:14.901Z,19.10
2022-12-16T22:29:42.195Z,18.93
2022-12-16T22:32:09.716Z,18.97
2022-12-16T22:34:37.010Z,18.90
2022-12-16T22:37:04.268Z,18.67
2022-12-16T22:39:31.497Z,18.80
2022-12-16T22:41:58.734Z,18.63
2022-12-16T22:44:27.333Z,19.63
2022-12-16T22:46:54.765Z,17.63
2022-12-16T22:49:23.410Z,16.83
2022-12-16T22:51:50.628Z,17.33
2022-12-16T22:54:17.822Z,16.47
2022-12-16T22:56:45.103Z,17.83
2022-12-16T22:59:12.366Z,19.97
2022-12-16T23:01:40.921Z,16.23
2022-12-16T23:04:08.209Z,16.13
2022-12-16T23:06:35.507Z,17.73
2022-12-16T23:09:02.738Z,16.43
2022-12-16T23:11:33.823Z,16.43
2022-12-16T23:14:01.082Z,16.30
2022-12-16T23:16:28.327Z,15.47
2022-12-16T23:18:57.062Z,15.53
2022-12-16T23:21:24.313Z,15.57
2022-12-16T23:23:52.435Z,15.47
2022-12-16T23:26:19.776Z,15.43
2022-12-16T23:28:49.691Z,15.33
2022-12-16T23:31:17.086Z,15.97
2022-12-16T23:32:29.916Z,9.23
2022-12-16T23:33:44.506Z,14.13
2022-12-16T23:36:13.081Z,15.70
2022-12-16T23:38:40.309Z,14.20
2022-12-16T23:41:07.509Z,13.77
2022-12-16T23:43:34.736Z,13.10
2022-12-16T23:46:02.047Z,12.43
2022-12-16T23:48:29.268Z,12.43
2022-12-16T23:50:56.936Z,12.10
2022-12-16T23:53:25.490Z,11.10
2022-12-16T23:55:55.173Z,11.13
2022-12-16T23:58:22.476Z,11.53
